createdAt,value
2019-03-29T00:01:54.302Z,25.10
2019-03-29T00:07:39.535Z,23.30
2019-03-29T00:12:54.628Z,23.93
2019-03-29T00:18:19.476Z,21.83
2019-03-29T00:23:50.487Z,22.90
2019-03-29T00:29:03.066Z,22.40
2019-03-29T00:34:17.377Z,21.97
2019-03-29T00:39:32.477Z,18.25
2019-03-29T00:45:05.443Z,19.50
2019-03-29T00:50:22.320Z,20.43
2019-03-29T00:56:01.499Z,19.17
2019-03-29T01:01:18.349Z,20.13
2019-03-29T01:06:42.744Z,19.17
2019-03-29T01:12:05.267Z,23.97
2019-03-29T01:17:15.420Z,24.52
2019-03-29T01:22:31.337Z,26.00
2019-03-29T01:34:02.796Z,25.48
2019-03-29T01:39:17.446Z,22.57
2019-03-29T01:44:35.617Z,18.10
2019-03-29T01:49:53.798Z,22.97
2019-03-29T01:55:10.779Z,17.93
2019-03-29T02:00:36.122Z,19.43
2019-03-29T02:05:56.099Z,19.47
2019-03-29T02:11:14.918Z,23.50
2019-03-29T02:16:39.103Z,21.70
2019-03-29T02:21:56.283Z,23.13
2019-03-29T02:27:21.874Z,23.47
2019-03-29T02:32:30.498Z,21.83
2019-03-29T02:37:42.855Z,24.60
2019-03-29T02:42:57.362Z,28.67
2019-03-29T02:48:13.702Z,24.03
2019-03-29T02:53:30.961Z,25.90
2019-03-29T02:58:52.010Z,33.23
2019-03-29T03:04:14.075Z,27.13
2019-03-29T03:09:34.961Z,27.85
2019-03-29T03:14:52.007Z,27.77
2019-03-29T03:20:08.931Z,32.77
2019-03-29T03:25:21.072Z,27.48
2019-03-29T03:30:38.459Z,33.27
2019-03-29T03:36:01.539Z,35.13
2019-03-29T03:41:14.688Z,34.60
2019-03-29T03:52:08.096Z,33.57
2019-03-29T03:57:28.130Z,37.03
2019-03-29T04:02:48.067Z,37.33
2019-03-29T04:08:05.893Z,35.53
2019-03-29T04:13:20.832Z,30.33
2019-03-29T04:18:31.825Z,39.40
2019-03-29T04:23:53.859Z,43.30
2019-03-29T04:29:10.569Z,35.17
2019-03-29T04:34:20.703Z,43.45
2019-03-29T04:40:06.479Z,41.57
2019-03-29T04:45:10.137Z,40.87
2019-03-29T04:50:26.844Z,45.17
2019-03-29T04:55:44.132Z,43.53
2019-03-29T05:00:59.537Z,38.93
2019-03-29T05:06:09.929Z,35.38
2019-03-29T05:11:26.557Z,43.58
2019-03-29T05:16:39.209Z,41.60
2019-03-29T05:21:52.275Z,45.40
2019-03-29T05:27:08.881Z,41.27
2019-03-29T05:32:26.445Z,40.67
2019-03-29T05:37:39.832Z,34.10
2019-03-29T05:43:00.545Z,32.03
2019-03-29T05:48:21.152Z,31.23
2019-03-29T05:53:36.234Z,46.40
2019-03-29T05:59:07.689Z,44.97
2019-03-29T06:04:24.074Z,45.93
2019-03-29T06:09:45.562Z,41.73
2019-03-29T06:14:59.438Z,40.97
2019-03-29T06:20:10.003Z,35.90
2019-03-29T06:25:22.972Z,44.85
2019-03-29T06:30:35.882Z,47.60
2019-03-29T06:35:49.285Z,46.47
2019-03-29T06:41:03.995Z,40.60
2019-03-29T06:46:14.297Z,40.53
2019-03-29T06:51:34.889Z,43.98
2019-03-29T06:56:47.172Z,38.60
2019-03-29T07:02:01.748Z,47.90
2019-03-29T07:07:21.905Z,40.53
2019-03-29T07:12:56.745Z,47.80
2019-03-29T07:18:28.857Z,42.40
2019-03-29T07:30:14.925Z,44.03
2019-03-29T07:36:09.842Z,38.70
2019-03-29T07:41:32.211Z,42.35
2019-03-29T07:46:55.240Z,37.13
2019-03-29T07:52:30.217Z,36.83
2019-03-29T07:57:45.152Z,39.57
2019-03-29T08:03:00.323Z,39.63
2019-03-29T08:08:49.746Z,36.28
2019-03-29T08:13:59.487Z,33.50
2019-03-29T08:19:13.349Z,35.93
2019-03-29T08:24:29.465Z,38.25
2019-03-29T08:29:52.875Z,30.67
2019-03-29T08:35:05.162Z,32.37
2019-03-29T08:40:19.634Z,32.05
2019-03-29T08:45:38.336Z,30.43
2019-03-29T08:51:00.451Z,30.57
2019-03-29T08:56:09.000Z,32.98
2019-03-29T09:01:19.816Z,31.55
2019-03-29T09:06:33.396Z,31.57
2019-03-29T09:11:49.826Z,28.80
2019-03-29T09:17:06.697Z,32.70
2019-03-29T09:22:22.501Z,36.37
2019-03-29T09:27:57.512Z,32.53
2019-03-29T09:33:12.676Z,39.03
2019-03-29T09:43:59.748Z,35.70
2019-03-29T09:49:08.498Z,35.57
2019-03-29T09:54:20.576Z,34.30
2019-03-29T09:59:39.656Z,38.73
2019-03-29T10:04:52.569Z,34.35
2019-03-29T10:10:06.785Z,32.88
2019-03-29T10:15:43.748Z,31.50
2019-03-29T10:21:20.284Z,30.00
2019-03-29T10:26:35.512Z,20.50
2019-03-29T10:32:09.452Z,20.40
2019-03-29T10:37:27.990Z,18.95
2019-03-29T10:42:58.110Z,20.57
2019-03-29T10:48:12.027Z,19.37
2019-03-29T10:53:28.579Z,19.10
2019-03-29T10:58:37.326Z,23.52
2019-03-29T11:03:54.568Z,18.30
2019-03-29T11:09:09.260Z,19.57
2019-03-29T11:14:43.429Z,20.40
2019-03-29T11:20:08.904Z,19.85
2019-03-29T11:25:23.532Z,18.52
2019-03-29T11:30:58.260Z,18.77
2019-03-29T11:36:16.509Z,18.00
2019-03-29T11:41:25.182Z,18.32
2019-03-29T11:46:41.171Z,17.75
2019-03-29T11:51:55.203Z,19.65
2019-03-29T11:57:08.934Z,18.23
2019-03-29T12:02:32.124Z,19.43
2019-03-29T12:07:48.123Z,19.80
2019-03-29T12:13:22.426Z,17.45
2019-03-29T12:19:03.182Z,16.60
2019-03-29T12:24:15.345Z,18.52
2019-03-29T12:29:36.741Z,17.43
2019-03-29T12:34:59.319Z,16.70
2019-03-29T12:40:11.685Z,18.67
2019-03-29T12:45:22.307Z,17.87
2019-03-29T12:50:40.743Z,18.65
2019-03-29T12:55:56.670Z,16.90
2019-03-29T13:01:21.039Z,17.32
2019-03-29T13:06:33.124Z,19.25
2019-03-29T13:11:50.841Z,16.45
2019-03-29T13:17:05.153Z,16.30
2019-03-29T13:22:38.895Z,17.40
2019-03-29T13:27:59.501Z,16.67
2019-03-29T13:33:14.840Z,18.32
2019-03-29T13:38:47.854Z,15.63
2019-03-29T13:44:22.979Z,17.92
2019-03-29T13:49:24.412Z,16.97
2019-03-29T13:54:36.880Z,16.37
2019-03-29T14:00:04.258Z,14.70
2019-03-29T14:05:15.962Z,16.32
2019-03-29T14:10:48.421Z,15.83
2019-03-29T14:16:05.277Z,18.45
2019-03-29T14:21:43.055Z,15.60
2019-03-29T14:26:57.411Z,19.10
2019-03-29T14:32:16.435Z,17.80
2019-03-29T14:37:50.574Z,16.12
2019-03-29T14:43:00.875Z,16.73
2019-03-29T14:48:18.534Z,18.60
2019-03-29T14:53:34.372Z,18.75
2019-03-29T14:59:01.609Z,17.82
2019-03-29T15:04:13.189Z,16.17
2019-03-29T15:09:23.396Z,17.52
2019-03-29T15:14:42.642Z,16.52
2019-03-29T15:20:04.003Z,19.15
2019-03-29T15:25:21.834Z,19.67
2019-03-29T15:30:34.972Z,16.23
2019-03-29T15:35:49.084Z,16.25
2019-03-29T15:40:58.980Z,16.75
2019-03-29T15:46:11.534Z,15.23
2019-03-29T15:51:29.205Z,16.32
2019-03-29T15:56:39.697Z,15.98
2019-03-29T16:01:52.717Z,15.63
2019-03-29T16:07:06.242Z,17.42
2019-03-29T16:12:30.828Z,15.80
2019-03-29T16:17:47.632Z,15.63
2019-03-29T16:23:07.456Z,13.88
2019-03-29T16:28:30.311Z,13.28
2019-03-29T16:33:49.417Z,13.03
2019-03-29T16:39:08.947Z,11.40
2019-03-29T16:44:29.185Z,11.85
2019-03-29T16:49:42.637Z,11.78
2019-03-29T16:55:12.259Z,12.13
2019-03-29T17:00:20.235Z,11.33
2019-03-29T17:05:33.826Z,11.33
2019-03-29T17:11:15.678Z,12.20
2019-03-29T17:16:47.380Z,11.45
2019-03-29T17:22:02.564Z,11.68
2019-03-29T17:27:23.715Z,11.48
2019-03-29T17:32:44.397Z,11.50
2019-03-29T17:38:09.991Z,12.65
2019-03-29T17:43:30.921Z,11.88
2019-03-29T17:49:07.103Z,11.25
2019-03-29T17:54:27.695Z,11.35
2019-03-29T17:59:41.841Z,12.30
2019-03-29T18:04:56.235Z,12.85
2019-03-29T18:10:12.961Z,12.98
2019-03-29T18:15:27.206Z,12.58
2019-03-29T18:20:41.552Z,13.10
2019-03-29T18:25:57.074Z,13.60
2019-03-29T18:31:09.908Z,13.33
2019-03-29T18:36:29.217Z,15.00
2019-03-29T18:41:49.969Z,18.23
2019-03-29T18:47:06.029Z,16.53
2019-03-29T18:52:21.828Z,14.17
2019-03-29T18:57:50.792Z,15.27
2019-03-29T19:03:07.205Z,14.67
2019-03-29T19:08:22.051Z,14.40
2019-03-29T19:13:36.796Z,15.23
2019-03-29T19:19:09.935Z,16.60
2019-03-29T19:24:16.260Z,16.53
2019-03-29T19:29:32.917Z,15.27
2019-03-29T19:34:47.251Z,15.63
2019-03-29T19:40:18.109Z,16.00
2019-03-29T19:45:35.526Z,17.43
2019-03-29T19:51:09.449Z,16.27
2019-03-29T19:56:36.437Z,19.40
2019-03-29T20:01:51.205Z,17.60
2019-03-29T20:07:12.197Z,16.10
2019-03-29T20:12:25.374Z,17.50
2019-03-29T20:23:18.931Z,18.00
2019-03-29T20:28:45.783Z,18.80
2019-03-29T20:34:03.698Z,22.50
2019-03-29T20:39:15.499Z,19.23
2019-03-29T20:44:50.233Z,18.10
2019-03-29T20:50:06.713Z,18.47
2019-03-29T20:55:24.493Z,18.00
2019-03-29T21:00:57.414Z,17.73
2019-03-29T21:06:09.907Z,16.37
2019-03-29T21:11:27.686Z,21.97
2019-03-29T21:16:47.459Z,21.40
2019-03-29T21:22:02.838Z,18.03
2019-03-29T21:27:18.275Z,20.70
2019-03-29T21:32:34.758Z,20.43
2019-03-29T21:38:01.267Z,21.83
2019-03-29T21:43:17.909Z,23.87
2019-03-29T21:48:37.254Z,21.90
2019-03-29T21:53:48.431Z,21.80
2019-03-29T21:59:09.275Z,19.83
2019-03-29T22:04:23.630Z,20.70
2019-03-29T22:09:42.602Z,21.27
2019-03-29T22:14:52.303Z,19.67
2019-03-29T22:20:11.444Z,18.47
2019-03-29T22:25:34.186Z,19.70
2019-03-29T22:30:54.979Z,18.30
2019-03-29T22:36:15.096Z,23.47
2019-03-29T22:41:45.669Z,25.27
2019-03-29T22:46:58.235Z,20.77
2019-03-29T22:52:15.238Z,24.97
2019-03-29T22:57:42.527Z,23.23
2019-03-29T23:03:00.291Z,24.53
2019-03-29T23:08:13.349Z,27.27
2019-03-29T23:13:26.758Z,28.13
2019-03-29T23:19:15.499Z,30.73
2019-03-29T23:24:31.780Z,29.07
2019-03-29T23:29:44.345Z,30.40
2019-03-29T23:34:59.837Z,32.67
2019-03-29T23:40:17.416Z,24.37
2019-03-29T23:45:33.539Z,24.63
2019-03-29T23:50:52.288Z,27.70
2019-03-29T23:56:08.387Z,26.23
